Terminal Aerodrome Forecast
Issued by NWS

Home | Current Version | Previous Version | Graphics & Text | Print | Product List | Glossary On
Versions: 1 2 3 4 5 6 7 8 9 10 11 12 13
000
FTUS43 KIWX 302300
TAFSBN
TAF
KSBN 302335Z 0100/0124 36008KT P6SM OVC020
     FM010900 VRB03KT 5SM BR BKN020
     FM011400 12005KT P6SM SCT025=

USA.gov is the U.S. government's official web portal to all federal, state and local government web resources and services.